Time;durP1;ratioP1;P1;durP2;ratioP2;P2;SDS_P1;SDS_P2;PMS_P1;PMS_P2;Temp;Humidity;BMP_temperature;BMP_pressure;BME280_temperature;BME280_humidity;BME280_pressure;Samples;Min_cycle;Max_cycle;Signal;HPM_P1;HPM_P2
2022/02/25 00:00:06;;;;;;;0.8;0.8;;;;;;;5.17;58.53906;95248.94;;;;
2022/02/25 00:01:09;;;;;;;0.8;0.8;;;;;;;5.17;58.53906;95248.94;;;;
2022/02/25 00:02:10;;;;;;;0.8;0.8;;;;;;;5.17;58.53906;95248.94;;;;
2022/02/25 00:03:13;;;;;;;0.8;0.8;;;;;;;5.17;58.53906;95248.94;;;;
2022/02/25 00:04:13;;;;;;;0.8;0.8;;;;;;;4.34;58.98633;95281.87;;;;
2022/02/25 00:05:14;;;;;;;0.8;0.8;;;;;;;4.34;58.98633;95281.87;;;;
2022/02/25 00:06:14;;;;;;;0.8;0.8;;;;;;;4.34;58.98633;95281.87;;;;
2022/02/25 00:07:16;;;;;;;0.8;0.8;;;;;;;4.34;58.98633;95281.87;;;;
2022/02/25 00:08:17;;;;;;;0.8;0.8;;;;;;;4.34;58.98633;95281.87;;;;
2022/02/25 00:09:17;;;;;;;0.8;0.8;;;;;;;4.34;58.98633;95281.87;;;;
2022/02/25 00:10:18;;;;;;;0.8;0.8;;;;;;;4.34;58.98633;95281.87;;;;
2022/02/25 00:11:18;;;;;;;0.8;0.8;;;;;;;4.34;58.98633;95281.87;;;;
2022/02/25 00:12:19;;;;;;;0.8;0.8;;;;;;;4.34;58.98633;95281.87;;;;
2022/02/25 00:13:19;;;;;;;0.8;0.8;;;;;;;4.34;58.98633;95281.87;;;;
2022/02/25 00:14:20;;;;;;;0.8;0.8;;;;;;;4.34;58.98633;95281.87;;;;
2022/02/25 00:15:20;;;;;;;0.8;0.8;;;;;;;3.77;59.08887;95301.75;;;;
2022/02/25 00:16:21;;;;;;;0.8;0.8;;;;;;;3.77;59.08887;95301.75;;;;
2022/02/25 00:17:21;;;;;;;0.8;0.8;;;;;;;3.77;59.08887;95301.75;;;;
2022/02/25 00:18:22;;;;;;;0.8;0.8;;;;;;;3.77;59.08887;95301.75;;;;
2022/02/25 00:19:22;;;;;;;0.8;0.8;;;;;;;3.77;59.08887;95301.75;;;;
2022/02/25 00:20:23;;;;;;;0.8;0.8;;;;;;;3.77;59.08887;95301.75;;;;
2022/02/25 00:21:23;;;;;;;0.8;0.8;;;;;;;3.77;59.08887;95301.75;;;;
2022/02/25 00:22:24;;;;;;;0.8;0.8;;;;;;;3.77;59.08887;95301.75;;;;
2022/02/25 00:23:25;;;;;;;0.8;0.8;;;;;;;3.77;59.08887;95301.75;;;;
2022/02/25 00:24:25;;;;;;;0.8;0.8;;;;;;;3.77;59.08887;95301.75;;;;
2022/02/25 00:25:26;;;;;;;1.05;0.9;;;;;;;3.42;59.47363;95332.44;;;;
2022/02/25 00:26:26;;;;;;;1.05;0.9;;;;;;;3.42;59.47363;95332.44;;;;
2022/02/25 00:27:27;;;;;;;1.05;0.9;;;;;;;3.42;59.47363;95332.44;;;;
2022/02/25 00:28:28;;;;;;;1.05;0.9;;;;;;;3.42;59.47363;95332.44;;;;
2022/02/25 00:29:29;;;;;;;1.05;0.9;;;;;;;3.42;59.47363;95332.44;;;;
2022/02/25 00:30:29;;;;;;;1.05;0.9;;;;;;;3.42;59.47363;95332.44;;;;
2022/02/25 00:31:30;;;;;;;1.05;0.9;;;;;;;3.42;59.47363;95332.44;;;;
2022/02/25 00:32:31;;;;;;;1.05;0.9;;;;;;;3.42;59.47363;95332.44;;;;
2022/02/25 00:33:31;;;;;;;1.05;0.9;;;;;;;3.42;59.47363;95332.44;;;;
2022/02/25 00:34:32;;;;;;;1.05;0.9;;;;;;;3.42;59.47363;95332.44;;;;
2022/02/25 00:35:32;;;;;;;1.05;0.9;;;;;;;3.42;59.47363;95332.44;;;;
2022/02/25 00:36:33;;;;;;;0.8;0.8;;;;;;;3.14;59.9834;95329.72;;;;
2022/02/25 00:37:33;;;;;;;0.8;0.8;;;;;;;3.14;59.9834;95329.72;;;;
2022/02/25 00:38:34;;;;;;;0.8;0.8;;;;;;;3.14;59.9834;95329.72;;;;
2022/02/25 00:39:35;;;;;;;0.8;0.8;;;;;;;3.14;59.9834;95329.72;;;;
2022/02/25 00:40:35;;;;;;;0.8;0.8;;;;;;;3.14;59.9834;95329.72;;;;
2022/02/25 00:41:36;;;;;;;0.8;0.8;;;;;;;3.14;59.9834;95329.72;;;;
2022/02/25 00:42:36;;;;;;;0.8;0.8;;;;;;;3.14;59.9834;95329.72;;;;
2022/02/25 00:43:37;;;;;;;0.8;0.8;;;;;;;3.14;59.9834;95329.72;;;;
2022/02/25 00:44:37;;;;;;;0.8;0.8;;;;;;;3.14;59.9834;95329.72;;;;
2022/02/25 00:45:38;;;;;;;0.8;0.8;;;;;;;3.14;59.9834;95329.72;;;;
2022/02/25 00:46:39;;;;;;;2.1;1.1;;;;;;;2.9;60.19336;95317.64;;;;
2022/02/25 00:47:39;;;;;;;2.1;1.1;;;;;;;2.9;60.19336;95317.64;;;;
2022/02/25 00:48:40;;;;;;;2.1;1.1;;;;;;;2.9;60.19336;95317.64;;;;
2022/02/25 00:49:40;;;;;;;2.1;1.1;;;;;;;2.9;60.19336;95317.64;;;;
2022/02/25 00:50:41;;;;;;;2.1;1.1;;;;;;;2.9;60.19336;95317.64;;;;
2022/02/25 00:51:42;;;;;;;2.1;1.1;;;;;;;2.9;60.19336;95317.64;;;;
2022/02/25 00:52:42;;;;;;;2.1;1.1;;;;;;;2.9;60.19336;95317.64;;;;
2022/02/25 00:53:43;;;;;;;2.1;1.1;;;;;;;2.9;60.19336;95317.64;;;;
2022/02/25 00:54:44;;;;;;;2.1;1.1;;;;;;;2.9;60.19336;95317.64;;;;
2022/02/25 00:55:44;;;;;;;2.1;1.1;;;;;;;2.9;60.19336;95317.64;;;;
2022/02/25 00:56:45;;;;;;;2.1;1.1;;;;;;;2.9;60.19336;95317.64;;;;
2022/02/25 00:57:45;;;;;;;1.9;1.1;;;;;;;2.67;60.00195;95367.61;;;;
2022/02/25 00:58:46;;;;;;;1.9;1.1;;;;;;;2.67;60.00195;95367.61;;;;
2022/02/25 00:59:47;;;;;;;1.9;1.1;;;;;;;2.67;60.00195;95367.61;;;;
2022/02/25 01:00:47;;;;;;;1.9;1.1;;;;;;;2.67;60.00195;95367.61;;;;
2022/02/25 01:01:48;;;;;;;1.9;1.1;;;;;;;2.67;60.00195;95367.61;;;;
2022/02/25 01:02:49;;;;;;;1.9;1.1;;;;;;;2.67;60.00195;95367.61;;;;
2022/02/25 01:03:49;;;;;;;1.9;1.1;;;;;;;2.67;60.00195;95367.61;;;;
2022/02/25 01:04:50;;;;;;;1.9;1.1;;;;;;;2.67;60.00195;95367.61;;;;
2022/02/25 01:05:50;;;;;;;1.9;1.1;;;;;;;2.67;60.00195;95367.61;;;;
2022/02/25 01:06:51;;;;;;;1.9;1.1;;;;;;;2.67;60.00195;95367.61;;;;
2022/02/25 01:07:51;;;;;;;1.9;1;;;;;;;2.55;60.80762;95368.18;;;;
2022/02/25 01:08:52;;;;;;;1.9;1;;;;;;;2.55;60.80762;95368.18;;;;
2022/02/25 01:09:52;;;;;;;1.9;1;;;;;;;2.55;60.80762;95368.18;;;;
2022/02/25 01:10:53;;;;;;;1.9;1;;;;;;;2.55;60.80762;95368.18;;;;
2022/02/25 01:11:53;;;;;;;1.9;1;;;;;;;2.55;60.80762;95368.18;;;;
2022/02/25 01:12:54;;;;;;;1.9;1;;;;;;;2.55;60.80762;95368.18;;;;
2022/02/25 01:13:54;;;;;;;1.9;1;;;;;;;2.55;60.80762;95368.18;;;;
2022/02/25 01:14:55;;;;;;;1.9;1;;;;;;;2.55;60.80762;95368.18;;;;
2022/02/25 01:15:55;;;;;;;1.9;1;;;;;;;2.55;60.80762;95368.18;;;;
2022/02/25 01:16:57;;;;;;;1.9;1;;;;;;;2.55;60.80762;95368.18;;;;
2022/02/25 01:17:57;;;;;;;1.9;1;;;;;;;2.55;60.80762;95368.18;;;;
2022/02/25 01:18:58;;;;;;;1.7;1.3;;;;;;;2.39;61.58594;95411.5;;;;
2022/02/25 01:19:58;;;;;;;1.7;1.3;;;;;;;2.39;61.58594;95411.5;;;;
2022/02/25 01:21:01;;;;;;;1.7;1.3;;;;;;;2.39;61.58594;95411.5;;;;
2022/02/25 01:22:01;;;;;;;1.7;1.3;;;;;;;2.39;61.58594;95411.5;;;;
2022/02/25 01:23:02;;;;;;;1.7;1.3;;;;;;;2.39;61.58594;95411.5;;;;
2022/02/25 01:24:02;;;;;;;1.7;1.3;;;;;;;2.39;61.58594;95411.5;;;;
2022/02/25 01:25:04;;;;;;;1.7;1.3;;;;;;;2.39;61.58594;95411.5;;;;
2022/02/25 01:26:05;;;;;;;1.7;1.3;;;;;;;2.39;61.58594;95411.5;;;;
2022/02/25 01:27:06;;;;;;;1.7;1.3;;;;;;;2.39;61.58594;95411.5;;;;
2022/02/25 01:28:07;;;;;;;1.7;1.3;;;;;;;2.39;61.58594;95411.5;;;;
2022/02/25 01:29:07;;;;;;;1.7;1.3;;;;;;;2.39;61.58594;95411.5;;;;
2022/02/25 01:30:08;;;;;;;1.7;1.1;;;;;;;2.36;62.80371;95454.5;;;;
2022/02/25 01:31:11;;;;;;;1.7;1.1;;;;;;;2.36;62.80371;95454.5;;;;
2022/02/25 01:32:11;;;;;;;1.7;1.1;;;;;;;2.36;62.80371;95454.5;;;;
2022/02/25 01:33:12;;;;;;;1.7;1.1;;;;;;;2.36;62.80371;95454.5;;;;
2022/02/25 01:34:12;;;;;;;1.7;1.1;;;;;;;2.36;62.80371;95454.5;;;;
2022/02/25 01:35:13;;;;;;;1.7;1.1;;;;;;;2.36;62.80371;95454.5;;;;
2022/02/25 01:36:13;;;;;;;1.7;1.1;;;;;;;2.36;62.80371;95454.5;;;;
2022/02/25 01:37:14;;;;;;;1.7;1.1;;;;;;;2.36;62.80371;95454.5;;;;
2022/02/25 01:38:14;;;;;;;1.7;1.1;;;;;;;2.36;62.80371;95454.5;;;;
2022/02/25 01:39:15;;;;;;;1.7;1.1;;;;;;;2.36;62.80371;95454.5;;;;
2022/02/25 01:40:15;;;;;;;2.35;1;;;;;;;2.37;64.15332;95472.96;;;;
2022/02/25 01:41:16;;;;;;;2.35;1;;;;;;;2.37;64.15332;95472.96;;;;
2022/02/25 01:42:16;;;;;;;2.35;1;;;;;;;2.37;64.15332;95472.96;;;;
2022/02/25 01:43:17;;;;;;;2.35;1;;;;;;;2.37;64.15332;95472.96;;;;
2022/02/25 01:44:18;;;;;;;2.35;1;;;;;;;2.37;64.15332;95472.96;;;;
2022/02/25 01:45:20;;;;;;;2.35;1;;;;;;;2.37;64.15332;95472.96;;;;
2022/02/25 01:46:21;;;;;;;2.35;1;;;;;;;2.37;64.15332;95472.96;;;;
2022/02/25 01:47:21;;;;;;;2.35;1;;;;;;;2.37;64.15332;95472.96;;;;
2022/02/25 01:48:22;;;;;;;2.35;1;;;;;;;2.37;64.15332;95472.96;;;;
2022/02/25 01:49:22;;;;;;;2.35;1;;;;;;;2.37;64.15332;95472.96;;;;
2022/02/25 01:50:24;;;;;;;2.35;1;;;;;;;2.37;64.15332;95472.96;;;;
2022/02/25 01:51:25;;;;;;;0.85;0.85;;;;;;;2.21;64.56055;95477.49;;;;
2022/02/25 01:52:25;;;;;;;0.85;0.85;;;;;;;2.21;64.56055;95477.49;;;;
2022/02/25 01:53:26;;;;;;;0.85;0.85;;;;;;;2.21;64.56055;95477.49;;;;
2022/02/25 01:54:27;;;;;;;0.85;0.85;;;;;;;2.21;64.56055;95477.49;;;;
2022/02/25 01:55:29;;;;;;;0.85;0.85;;;;;;;2.21;64.56055;95477.49;;;;
2022/02/25 01:56:30;;;;;;;0.85;0.85;;;;;;;2.21;64.56055;95477.49;;;;
2022/02/25 01:57:30;;;;;;;0.85;0.85;;;;;;;2.21;64.56055;95477.49;;;;
2022/02/25 01:58:31;;;;;;;0.85;0.85;;;;;;;2.21;64.56055;95477.49;;;;
2022/02/25 01:59:31;;;;;;;0.85;0.85;;;;;;;2.21;64.56055;95477.49;;;;
2022/02/25 02:00:32;;;;;;;0.85;0.85;;;;;;;2.21;64.56055;95477.49;;;;
2022/02/25 02:01:34;;;;;;;1.25;0.9;;;;;;;2.08;65.45703;95505.67;;;;
2022/02/25 02:02:36;;;;;;;1.25;0.9;;;;;;;2.08;65.45703;95505.67;;;;
2022/02/25 02:03:36;;;;;;;1.25;0.9;;;;;;;2.08;65.45703;95505.67;;;;
2022/02/25 02:04:37;;;;;;;1.25;0.9;;;;;;;2.08;65.45703;95505.67;;;;
2022/02/25 02:05:38;;;;;;;1.25;0.9;;;;;;;2.08;65.45703;95505.67;;;;
2022/02/25 02:06:39;;;;;;;1.25;0.9;;;;;;;2.08;65.45703;95505.67;;;;
2022/02/25 02:07:40;;;;;;;1.25;0.9;;;;;;;2.08;65.45703;95505.67;;;;
2022/02/25 02:08:41;;;;;;;1.25;0.9;;;;;;;2.08;65.45703;95505.67;;;;
2022/02/25 02:09:41;;;;;;;1.25;0.9;;;;;;;2.08;65.45703;95505.67;;;;
2022/02/25 02:10:42;;;;;;;1.25;0.9;;;;;;;2.08;65.45703;95505.67;;;;
2022/02/25 02:11:43;;;;;;;1.25;0.9;;;;;;;2.08;65.45703;95505.67;;;;
2022/02/25 02:12:46;;;;;;;1.4;1.05;;;;;;;2;66.0127;95485.83;;;;
2022/02/25 02:13:47;;;;;;;1.4;1.05;;;;;;;2;66.0127;95485.83;;;;
2022/02/25 02:14:48;;;;;;;1.4;1.05;;;;;;;2;66.0127;95485.83;;;;
2022/02/25 02:15:48;;;;;;;1.4;1.05;;;;;;;2;66.0127;95485.83;;;;
2022/02/25 02:16:49;;;;;;;1.4;1.05;;;;;;;2;66.0127;95485.83;;;;
2022/02/25 02:17:53;;;;;;;1.4;1.05;;;;;;;2;66.0127;95485.83;;;;
2022/02/25 02:18:54;;;;;;;1.4;1.05;;;;;;;2;66.0127;95485.83;;;;
2022/02/25 02:19:55;;;;;;;1.4;1.05;;;;;;;2;66.0127;95485.83;;;;
2022/02/25 02:20:55;;;;;;;1.4;1.05;;;;;;;2;66.0127;95485.83;;;;
2022/02/25 02:21:56;;;;;;;1.4;1.05;;;;;;;2;66.0127;95485.83;;;;
2022/02/25 02:22:57;;;;;;;1.4;1.05;;;;;;;2;66.0127;95485.83;;;;
2022/02/25 02:23:58;;;;;;;1.4;1.05;;;;;;;2;66.0127;95485.83;;;;
2022/02/25 02:25:00;;;;;;;1.4;1.05;;;;;;;2;66.0127;95485.83;;;;
2022/02/25 02:26:01;;;;;;;1.4;1.05;;;;;;;2;66.0127;95485.83;;;;
2022/02/25 02:27:01;;;;;;;1.4;1.05;;;;;;;2;66.0127;95485.83;;;;
2022/02/25 02:28:17;;;;;;;1.4;1.05;;;;;;;2;66.0127;95485.83;;;;
2022/02/25 02:29:18;;;;;;;1.4;1.05;;;;;;;2;66.0127;95485.83;;;;
2022/02/25 02:30:20;;;;;;;1.4;1.05;;;;;;;2;66.0127;95485.83;;;;
2022/02/25 02:31:21;;;;;;;1.4;1.05;;;;;;;2;66.0127;95485.83;;;;
2022/02/25 02:32:22;;;;;;;1.4;1.05;;;;;;;2;66.0127;95485.83;;;;
2022/02/25 02:33:22;;;;;;;2.05;0.8;;;;;;;1.85;67.23828;95515.58;;;;
2022/02/25 02:34:23;;;;;;;2.05;0.8;;;;;;;1.85;67.23828;95515.58;;;;
2022/02/25 02:35:24;;;;;;;2.05;0.8;;;;;;;1.85;67.23828;95515.58;;;;
2022/02/25 02:36:24;;;;;;;2.05;0.8;;;;;;;1.85;67.23828;95515.58;;;;
2022/02/25 02:37:25;;;;;;;2.05;0.8;;;;;;;1.85;67.23828;95515.58;;;;
2022/02/25 02:38:25;;;;;;;2.05;0.8;;;;;;;1.85;67.23828;95515.58;;;;
2022/02/25 02:39:26;;;;;;;2.05;0.8;;;;;;;1.85;67.23828;95515.58;;;;
2022/02/25 02:40:27;;;;;;;2.05;0.8;;;;;;;1.85;67.23828;95515.58;;;;
2022/02/25 02:41:28;;;;;;;2.05;0.8;;;;;;;1.85;67.23828;95515.58;;;;
2022/02/25 02:42:29;;;;;;;2.05;0.8;;;;;;;1.85;67.23828;95515.58;;;;
2022/02/25 02:43:29;;;;;;;2.05;0.8;;;;;;;1.85;67.23828;95515.58;;;;
2022/02/25 02:44:30;;;;;;;0.8;0.7;;;;;;;1.89;67.87598;95531.53;;;;
2022/02/25 02:45:30;;;;;;;0.8;0.7;;;;;;;1.89;67.87598;95531.53;;;;
2022/02/25 02:46:31;;;;;;;0.8;0.7;;;;;;;1.89;67.87598;95531.53;;;;
2022/02/25 02:47:31;;;;;;;0.8;0.7;;;;;;;1.89;67.87598;95531.53;;;;
2022/02/25 02:48:32;;;;;;;0.8;0.7;;;;;;;1.89;67.87598;95531.53;;;;
2022/02/25 02:49:33;;;;;;;0.8;0.7;;;;;;;1.89;67.87598;95531.53;;;;
2022/02/25 02:50:34;;;;;;;0.8;0.7;;;;;;;1.89;67.87598;95531.53;;;;
2022/02/25 02:51:34;;;;;;;0.8;0.7;;;;;;;1.89;67.87598;95531.53;;;;
2022/02/25 02:52:35;;;;;;;0.8;0.7;;;;;;;1.89;67.87598;95531.53;;;;
2022/02/25 02:53:36;;;;;;;0.8;0.7;;;;;;;1.89;67.87598;95531.53;;;;
2022/02/25 02:54:37;;;;;;;2.25;0.9;;;;;;;1.91;68.49902;95548.16;;;;
2022/02/25 02:55:37;;;;;;;2.25;0.9;;;;;;;1.91;68.49902;95548.16;;;;
2022/02/25 02:56:38;;;;;;;2.25;0.9;;;;;;;1.91;68.49902;95548.16;;;;
2022/02/25 02:57:39;;;;;;;2.25;0.9;;;;;;;1.91;68.49902;95548.16;;;;
2022/02/25 02:58:39;;;;;;;2.25;0.9;;;;;;;1.91;68.49902;95548.16;;;;
2022/02/25 02:59:40;;;;;;;2.25;0.9;;;;;;;1.91;68.49902;95548.16;;;;
2022/02/25 03:00:41;;;;;;;2.25;0.9;;;;;;;1.91;68.49902;95548.16;;;;
2022/02/25 03:01:43;;;;;;;2.25;0.9;;;;;;;1.91;68.49902;95548.16;;;;
2022/02/25 03:02:44;;;;;;;2.25;0.9;;;;;;;1.91;68.49902;95548.16;;;;
2022/02/25 03:03:45;;;;;;;2.25;0.9;;;;;;;1.91;68.49902;95548.16;;;;
2022/02/25 03:04:45;;;;;;;2.25;0.9;;;;;;;1.91;68.49902;95548.16;;;;
2022/02/25 03:05:46;;;;;;;1.5;0.85;;;;;;;1.88;69.19922;95530.7;;;;
2022/02/25 03:06:47;;;;;;;1.5;0.85;;;;;;;1.88;69.19922;95530.7;;;;
2022/02/25 03:07:47;;;;;;;1.5;0.85;;;;;;;1.88;69.19922;95530.7;;;;
2022/02/25 03:08:48;;;;;;;1.5;0.85;;;;;;;1.88;69.19922;95530.7;;;;
2022/02/25 03:09:49;;;;;;;1.5;0.85;;;;;;;1.88;69.19922;95530.7;;;;
2022/02/25 03:10:49;;;;;;;1.5;0.85;;;;;;;1.88;69.19922;95530.7;;;;
2022/02/25 03:11:52;;;;;;;1.5;0.85;;;;;;;1.88;69.19922;95530.7;;;;
2022/02/25 03:12:52;;;;;;;1.5;0.85;;;;;;;1.88;69.19922;95530.7;;;;
2022/02/25 03:13:53;;;;;;;1.5;0.85;;;;;;;1.88;69.19922;95530.7;;;;
2022/02/25 03:14:54;;;;;;;1.5;0.85;;;;;;;1.88;69.19922;95530.7;;;;
2022/02/25 03:15:54;;;;;;;1.5;0.85;;;;;;;1.88;69.19922;95530.7;;;;
2022/02/25 03:16:55;;;;;;;1.4;0.8;;;;;;;1.85;69.43652;95534.11;;;;
2022/02/25 03:17:55;;;;;;;1.4;0.8;;;;;;;1.85;69.43652;95534.11;;;;
2022/02/25 03:18:56;;;;;;;1.4;0.8;;;;;;;1.85;69.43652;95534.11;;;;
2022/02/25 03:19:57;;;;;;;1.4;0.8;;;;;;;1.85;69.43652;95534.11;;;;
2022/02/25 03:20:58;;;;;;;1.4;0.8;;;;;;;1.85;69.43652;95534.11;;;;
2022/02/25 03:21:58;;;;;;;1.4;0.8;;;;;;;1.85;69.43652;95534.11;;;;
2022/02/25 03:23:00;;;;;;;1.4;0.8;;;;;;;1.85;69.43652;95534.11;;;;
2022/02/25 03:24:00;;;;;;;1.4;0.8;;;;;;;1.85;69.43652;95534.11;;;;
2022/02/25 03:25:01;;;;;;;1.4;0.8;;;;;;;1.85;69.43652;95534.11;;;;
2022/02/25 03:26:03;;;;;;;1.4;0.8;;;;;;;1.85;69.43652;95534.11;;;;
2022/02/25 03:27:04;;;;;;;1.9;0.7;;;;;;;1.76;69.52637;95552.47;;;;
2022/02/25 03:28:05;;;;;;;1.9;0.7;;;;;;;1.76;69.52637;95552.47;;;;
2022/02/25 03:29:05;;;;;;;1.9;0.7;;;;;;;1.76;69.52637;95552.47;;;;
2022/02/25 03:30:06;;;;;;;1.9;0.7;;;;;;;1.76;69.52637;95552.47;;;;
2022/02/25 03:31:08;;;;;;;1.9;0.7;;;;;;;1.76;69.52637;95552.47;;;;
2022/02/25 03:32:08;;;;;;;1.9;0.7;;;;;;;1.76;69.52637;95552.47;;;;
2022/02/25 03:33:09;;;;;;;1.9;0.7;;;;;;;1.76;69.52637;95552.47;;;;
2022/02/25 03:34:09;;;;;;;1.9;0.7;;;;;;;1.76;69.52637;95552.47;;;;
2022/02/25 03:35:10;;;;;;;1.9;0.7;;;;;;;1.76;69.52637;95552.47;;;;
2022/02/25 03:36:11;;;;;;;1.9;0.7;;;;;;;1.76;69.52637;95552.47;;;;
2022/02/25 03:37:12;;;;;;;1.9;0.7;;;;;;;1.76;69.52637;95552.47;;;;
2022/02/25 03:38:13;;;;;;;0.8;0.7;;;;;;;1.71;69.90527;95562.81;;;;
2022/02/25 03:39:13;;;;;;;0.8;0.7;;;;;;;1.71;69.90527;95562.81;;;;
2022/02/25 03:40:14;;;;;;;0.8;0.7;;;;;;;1.71;69.90527;95562.81;;;;
2022/02/25 03:41:15;;;;;;;0.8;0.7;;;;;;;1.71;69.90527;95562.81;;;;
2022/02/25 03:42:15;;;;;;;0.8;0.7;;;;;;;1.71;69.90527;95562.81;;;;
2022/02/25 03:43:16;;;;;;;0.8;0.7;;;;;;;1.71;69.90527;95562.81;;;;
2022/02/25 03:44:16;;;;;;;0.8;0.7;;;;;;;1.71;69.90527;95562.81;;;;
2022/02/25 03:45:17;;;;;;;0.8;0.7;;;;;;;1.71;69.90527;95562.81;;;;
2022/02/25 03:46:17;;;;;;;0.8;0.7;;;;;;;1.71;69.90527;95562.81;;;;
2022/02/25 03:47:18;;;;;;;0.8;0.7;;;;;;;1.71;69.90527;95562.81;;;;
2022/02/25 03:48:19;;;;;;;2.55;0.75;;;;;;;1.79;70.1709;95587.23;;;;
2022/02/25 03:49:20;;;;;;;2.55;0.75;;;;;;;1.79;70.1709;95587.23;;;;
2022/02/25 03:50:20;;;;;;;2.55;0.75;;;;;;;1.79;70.1709;95587.23;;;;
2022/02/25 03:51:21;;;;;;;2.55;0.75;;;;;;;1.79;70.1709;95587.23;;;;
2022/02/25 03:52:21;;;;;;;2.55;0.75;;;;;;;1.79;70.1709;95587.23;;;;
2022/02/25 03:53:22;;;;;;;2.55;0.75;;;;;;;1.79;70.1709;95587.23;;;;
2022/02/25 03:54:22;;;;;;;2.55;0.75;;;;;;;1.79;70.1709;95587.23;;;;
2022/02/25 03:55:23;;;;;;;2.55;0.75;;;;;;;1.79;70.1709;95587.23;;;;
2022/02/25 03:56:23;;;;;;;2.55;0.75;;;;;;;1.79;70.1709;95587.23;;;;
2022/02/25 03:57:25;;;;;;;2.55;0.75;;;;;;;1.79;70.1709;95587.23;;;;
2022/02/25 03:58:25;;;;;;;2.55;0.75;;;;;;;1.79;70.1709;95587.23;;;;
2022/02/25 03:59:26;;;;;;;1.45;0.7;;;;;;;1.83;70.29102;95589.46;;;;
2022/02/25 04:00:27;;;;;;;1.45;0.7;;;;;;;1.83;70.29102;95589.46;;;;
2022/02/25 04:01:28;;;;;;;1.45;0.7;;;;;;;1.83;70.29102;95589.46;;;;
2022/02/25 04:02:28;;;;;;;1.45;0.7;;;;;;;1.83;70.29102;95589.46;;;;
2022/02/25 04:03:29;;;;;;;1.45;0.7;;;;;;;1.83;70.29102;95589.46;;;;
2022/02/25 04:04:29;;;;;;;1.45;0.7;;;;;;;1.83;70.29102;95589.46;;;;
2022/02/25 04:05:30;;;;;;;1.45;0.7;;;;;;;1.83;70.29102;95589.46;;;;
2022/02/25 04:06:33;;;;;;;1.45;0.7;;;;;;;1.83;70.29102;95589.46;;;;
2022/02/25 04:07:33;;;;;;;1.45;0.7;;;;;;;1.83;70.29102;95589.46;;;;
2022/02/25 04:08:34;;;;;;;1.45;0.7;;;;;;;1.83;70.29102;95589.46;;;;
2022/02/25 04:09:34;;;;;;;1.7;0.8;;;;;;;1.85;70.48438;95610.92;;;;
2022/02/25 04:10:35;;;;;;;1.7;0.8;;;;;;;1.85;70.48438;95610.92;;;;
2022/02/25 04:11:36;;;;;;;1.7;0.8;;;;;;;1.85;70.48438;95610.92;;;;
2022/02/25 04:12:36;;;;;;;1.7;0.8;;;;;;;1.85;70.48438;95610.92;;;;
2022/02/25 04:13:37;;;;;;;1.7;0.8;;;;;;;1.85;70.48438;95610.92;;;;
2022/02/25 04:14:39;;;;;;;1.7;0.8;;;;;;;1.85;70.48438;95610.92;;;;
2022/02/25 04:15:40;;;;;;;1.7;0.8;;;;;;;1.85;70.48438;95610.92;;;;
2022/02/25 04:16:40;;;;;;;1.7;0.8;;;;;;;1.85;70.48438;95610.92;;;;
2022/02/25 04:17:41;;;;;;;1.7;0.8;;;;;;;1.85;70.48438;95610.92;;;;
2022/02/25 04:18:41;;;;;;;1.7;0.8;;;;;;;1.85;70.48438;95610.92;;;;
2022/02/25 04:19:42;;;;;;;1.7;0.8;;;;;;;1.85;70.48438;95610.92;;;;
2022/02/25 04:20:43;;;;;;;0.8;0.75;;;;;;;1.81;70.43652;95603.86;;;;
2022/02/25 04:21:43;;;;;;;0.8;0.75;;;;;;;1.81;70.43652;95603.86;;;;
2022/02/25 04:22:44;;;;;;;0.8;0.75;;;;;;;1.81;70.43652;95603.86;;;;
2022/02/25 04:23:45;;;;;;;0.8;0.75;;;;;;;1.81;70.43652;95603.86;;;;
2022/02/25 04:24:46;;;;;;;0.8;0.75;;;;;;;1.81;70.43652;95603.86;;;;
2022/02/25 04:25:46;;;;;;;0.8;0.75;;;;;;;1.81;70.43652;95603.86;;;;
2022/02/25 04:26:47;;;;;;;0.8;0.75;;;;;;;1.81;70.43652;95603.86;;;;
2022/02/25 04:27:48;;;;;;;0.8;0.75;;;;;;;1.81;70.43652;95603.86;;;;
2022/02/25 04:28:50;;;;;;;0.8;0.75;;;;;;;1.81;70.43652;95603.86;;;;
2022/02/25 04:29:50;;;;;;;0.8;0.75;;;;;;;1.81;70.43652;95603.86;;;;
2022/02/25 04:30:51;;;;;;;1.15;1;;;;;;;1.82;70.84766;95622.31;;;;
2022/02/25 04:31:51;;;;;;;1.15;1;;;;;;;1.82;70.84766;95622.31;;;;
2022/02/25 04:32:52;;;;;;;1.15;1;;;;;;;1.82;70.84766;95622.31;;;;
2022/02/25 04:33:52;;;;;;;1.15;1;;;;;;;1.82;70.84766;95622.31;;;;
2022/02/25 04:34:53;;;;;;;1.15;1;;;;;;;1.82;70.84766;95622.31;;;;
2022/02/25 04:35:53;;;;;;;1.15;1;;;;;;;1.82;70.84766;95622.31;;;;
2022/02/25 04:36:54;;;;;;;1.15;1;;;;;;;1.82;70.84766;95622.31;;;;
2022/02/25 04:37:54;;;;;;;1.15;1;;;;;;;1.82;70.84766;95622.31;;;;
2022/02/25 04:38:55;;;;;;;1.15;1;;;;;;;1.82;70.84766;95622.31;;;;
2022/02/25 04:39:56;;;;;;;1.15;1;;;;;;;1.82;70.84766;95622.31;;;;
2022/02/25 04:41:01;;;;;;;1.15;1;;;;;;;1.82;70.84766;95622.31;;;;
2022/02/25 04:42:03;;;;;;;1.8;1.1;;;;;;;1.84;70.78711;95628.3;;;;
2022/02/25 04:43:04;;;;;;;1.8;1.1;;;;;;;1.84;70.78711;95628.3;;;;
2022/02/25 04:44:05;;;;;;;1.8;1.1;;;;;;;1.84;70.78711;95628.3;;;;
2022/02/25 04:45:06;;;;;;;1.8;1.1;;;;;;;1.84;70.78711;95628.3;;;;
2022/02/25 04:46:07;;;;;;;1.8;1.1;;;;;;;1.84;70.78711;95628.3;;;;
2022/02/25 04:47:14;;;;;;;1.8;1.1;;;;;;;1.84;70.78711;95628.3;;;;
2022/02/25 04:48:15;;;;;;;1.8;1.1;;;;;;;1.84;70.78711;95628.3;;;;
2022/02/25 04:49:15;;;;;;;1.8;1.1;;;;;;;1.84;70.78711;95628.3;;;;
2022/02/25 04:50:16;;;;;;;1.8;1.1;;;;;;;1.84;70.78711;95628.3;;;;
2022/02/25 04:51:16;;;;;;;1.8;1.1;;;;;;;1.84;70.78711;95628.3;;;;
2022/02/25 04:52:17;;;;;;;1;0.8;;;;;;;1.85;70.89355;95629.14;;;;
2022/02/25 04:53:18;;;;;;;1;0.8;;;;;;;1.85;70.89355;95629.14;;;;
2022/02/25 04:54:19;;;;;;;1;0.8;;;;;;;1.85;70.89355;95629.14;;;;
2022/02/25 04:55:20;;;;;;;1;0.8;;;;;;;1.85;70.89355;95629.14;;;;
2022/02/25 04:56:20;;;;;;;1;0.8;;;;;;;1.85;70.89355;95629.14;;;;
2022/02/25 04:57:21;;;;;;;1;0.8;;;;;;;1.85;70.89355;95629.14;;;;
2022/02/25 04:58:21;;;;;;;1;0.8;;;;;;;1.85;70.89355;95629.14;;;;
2022/02/25 04:59:22;;;;;;;1;0.8;;;;;;;1.85;70.89355;95629.14;;;;
2022/02/25 05:00:23;;;;;;;1;0.8;;;;;;;1.85;70.89355;95629.14;;;;
2022/02/25 05:01:23;;;;;;;1;0.8;;;;;;;1.85;70.89355;95629.14;;;;
2022/02/25 05:02:24;;;;;;;1;0.8;;;;;;;1.85;70.89355;95629.14;;;;
2022/02/25 05:03:24;;;;;;;0.9;0.8;;;;;;;1.75;70.91895;95643.56;;;;
2022/02/25 05:04:25;;;;;;;0.9;0.8;;;;;;;1.75;70.91895;95643.56;;;;
2022/02/25 05:05:25;;;;;;;0.9;0.8;;;;;;;1.75;70.91895;95643.56;;;;
2022/02/25 05:06:26;;;;;;;0.9;0.8;;;;;;;1.75;70.91895;95643.56;;;;
2022/02/25 05:07:26;;;;;;;0.9;0.8;;;;;;;1.75;70.91895;95643.56;;;;
2022/02/25 05:08:27;;;;;;;0.9;0.8;;;;;;;1.75;70.91895;95643.56;;;;
2022/02/25 05:09:28;;;;;;;0.9;0.8;;;;;;;1.75;70.91895;95643.56;;;;
2022/02/25 05:10:28;;;;;;;0.9;0.8;;;;;;;1.75;70.91895;95643.56;;;;
2022/02/25 05:11:29;;;;;;;0.9;0.8;;;;;;;1.75;70.91895;95643.56;;;;
2022/02/25 05:12:29;;;;;;;0.9;0.8;;;;;;;1.75;70.91895;95643.56;;;;
2022/02/25 05:13:30;;;;;;;0.9;0.8;;;;;;;1.75;70.91895;95643.56;;;;
2022/02/25 05:20:15;;;;;;;0.9;0.8;;;;;;;1.75;70.91895;95643.56;;;;
2022/02/25 05:21:16;;;;;;;0.9;0.8;;;;;;;1.75;70.91895;95643.56;;;;
2022/02/25 05:22:17;;;;;;;0.9;0.8;;;;;;;1.75;70.91895;95643.56;;;;
2022/02/25 05:23:17;;;;;;;0.9;0.8;;;;;;;1.75;70.91895;95643.56;;;;
2022/02/25 05:24:19;;;;;;;1.2;0.75;;;;;;;1.55;71.11816;95673.74;;;;
2022/02/25 05:25:20;;;;;;;1.2;0.75;;;;;;;1.55;71.11816;95673.74;;;;
2022/02/25 05:26:22;;;;;;;1.2;0.75;;;;;;;1.55;71.11816;95673.74;;;;
2022/02/25 05:27:23;;;;;;;1.2;0.75;;;;;;;1.55;71.11816;95673.74;;;;
2022/02/25 05:28:23;;;;;;;1.2;0.75;;;;;;;1.55;71.11816;95673.74;;;;
2022/02/25 05:29:24;;;;;;;1.2;0.75;;;;;;;1.55;71.11816;95673.74;;;;
2022/02/25 05:30:24;;;;;;;1.2;0.75;;;;;;;1.55;71.11816;95673.74;;;;
2022/02/25 05:31:26;;;;;;;1.2;0.75;;;;;;;1.55;71.11816;95673.74;;;;
2022/02/25 05:32:27;;;;;;;1.2;0.75;;;;;;;1.55;71.11816;95673.74;;;;
2022/02/25 05:33:27;;;;;;;1.2;0.75;;;;;;;1.55;71.11816;95673.74;;;;
2022/02/25 05:34:28;;;;;;;1.2;0.75;;;;;;;1.55;71.11816;95673.74;;;;
2022/02/25 05:35:28;;;;;;;0.8;0.8;;;;;;;1.44;71.28613;95695.87;;;;
2022/02/25 05:36:29;;;;;;;0.8;0.8;;;;;;;1.44;71.28613;95695.87;;;;
2022/02/25 05:37:29;;;;;;;0.8;0.8;;;;;;;1.44;71.28613;95695.87;;;;
2022/02/25 05:38:30;;;;;;;0.8;0.8;;;;;;;1.44;71.28613;95695.87;;;;
2022/02/25 05:39:30;;;;;;;0.8;0.8;;;;;;;1.44;71.28613;95695.87;;;;
2022/02/25 05:40:31;;;;;;;0.8;0.8;;;;;;;1.44;71.28613;95695.87;;;;
2022/02/25 05:41:31;;;;;;;0.8;0.8;;;;;;;1.44;71.28613;95695.87;;;;
2022/02/25 05:42:32;;;;;;;0.8;0.8;;;;;;;1.44;71.28613;95695.87;;;;
2022/02/25 05:43:33;;;;;;;0.8;0.8;;;;;;;1.44;71.28613;95695.87;;;;
2022/02/25 05:44:33;;;;;;;0.8;0.8;;;;;;;1.44;71.28613;95695.87;;;;
2022/02/25 05:45:34;;;;;;;2;0.9;;;;;;;1.33;71.38477;95705.96;;;;
2022/02/25 05:46:35;;;;;;;2;0.9;;;;;;;1.33;71.38477;95705.96;;;;
2022/02/25 05:47:35;;;;;;;2;0.9;;;;;;;1.33;71.38477;95705.96;;;;
2022/02/25 05:48:36;;;;;;;2;0.9;;;;;;;1.33;71.38477;95705.96;;;;
2022/02/25 05:49:37;;;;;;;2;0.9;;;;;;;1.33;71.38477;95705.96;;;;
2022/02/25 05:50:37;;;;;;;2;0.9;;;;;;;1.33;71.38477;95705.96;;;;
2022/02/25 05:51:38;;;;;;;2;0.9;;;;;;;1.33;71.38477;95705.96;;;;
2022/02/25 05:52:38;;;;;;;2;0.9;;;;;;;1.33;71.38477;95705.96;;;;
2022/02/25 05:53:39;;;;;;;2;0.9;;;;;;;1.33;71.38477;95705.96;;;;
2022/02/25 05:54:40;;;;;;;2;0.9;;;;;;;1.33;71.38477;95705.96;;;;
2022/02/25 05:55:40;;;;;;;2;0.9;;;;;;;1.33;71.38477;95705.96;;;;
2022/02/25 05:56:41;;;;;;;2.1;0.9;;;;;;;1.25;71.66406;95729.1;;;;
2022/02/25 05:57:41;;;;;;;2.1;0.9;;;;;;;1.25;71.66406;95729.1;;;;
2022/02/25 05:58:42;;;;;;;2.1;0.9;;;;;;;1.25;71.66406;95729.1;;;;
2022/02/25 05:59:42;;;;;;;2.1;0.9;;;;;;;1.25;71.66406;95729.1;;;;
2022/02/25 06:00:43;;;;;;;2.1;0.9;;;;;;;1.25;71.66406;95729.1;;;;
2022/02/25 06:01:44;;;;;;;2.1;0.9;;;;;;;1.25;71.66406;95729.1;;;;
2022/02/25 06:02:46;;;;;;;2.1;0.9;;;;;;;1.25;71.66406;95729.1;;;;
2022/02/25 06:03:49;;;;;;;2.1;0.9;;;;;;;1.25;71.66406;95729.1;;;;
2022/02/25 06:04:50;;;;;;;2.1;0.9;;;;;;;1.25;71.66406;95729.1;;;;
2022/02/25 06:05:51;;;;;;;2.1;0.9;;;;;;;1.25;71.66406;95729.1;;;;